createdAt,value
2022-08-26T09:34:40.539Z,24
2022-08-26T09:37:12.142Z,24
2022-08-26T09:39:45.344Z,24
2022-08-26T09:42:18.070Z,24
2022-08-26T09:44:51.105Z,24
2022-08-26T09:47:27.338Z,28
2022-08-26T09:50:00.771Z,26
2022-08-26T09:52:43.295Z,28
2022-08-26T09:55:16.756Z,27
2022-08-26T09:57:48.653Z,27
2022-08-26T10:00:22.758Z,28
2022-08-26T10:02:58.097Z,24
2022-08-26T10:05:30.123Z,24
2022-08-26T10:08:02.889Z,24
2022-08-26T10:10:35.578Z,24
2022-08-26T10:13:14.782Z,28
2022-08-26T10:15:50.589Z,24
2022-08-26T10:18:22.137Z,24
2022-08-26T10:20:56.359Z,20
2022-08-26T10:23:31.005Z,23
2022-08-26T10:26:04.762Z,21
2022-08-26T10:28:40.328Z,20
2022-08-26T10:31:15.227Z,28
2022-08-26T10:34:00.276Z,20
2022-08-26T10:36:39.251Z,20
2022-08-26T10:39:47.167Z,20
2022-08-26T10:42:29.989Z,20
2022-08-26T10:45:02.409Z,22
2022-08-26T10:47:34.989Z,20
2022-08-26T10:50:07.659Z,21
2022-08-26T10:52:45.185Z,20
2022-08-26T10:55:18.207Z,16
2022-08-26T10:57:50.435Z,16
2022-08-26T11:00:22.935Z,16
2022-08-26T11:03:01.879Z,20
2022-08-26T11:05:35.232Z,20
2022-08-26T11:08:10.001Z,20
2022-08-26T11:10:43.458Z,20
2022-08-26T11:13:16.012Z,16
2022-08-26T11:15:50.665Z,20
2022-08-26T11:18:23.068Z,20
2022-08-26T11:20:58.032Z,20
2022-08-26T11:23:30.993Z,20
2022-08-26T11:26:03.627Z,17
2022-08-26T11:28:39.794Z,24
2022-08-26T11:31:17.141Z,16
2022-08-26T11:33:50.976Z,17
2022-08-26T11:36:24.927Z,24
2022-08-26T11:38:58.287Z,20
2022-08-26T11:41:29.906Z,28
2022-08-26T11:44:02.994Z,20
2022-08-26T11:46:36.569Z,24
2022-08-26T11:49:09.928Z,20
2022-08-26T11:51:46.407Z,20
2022-08-26T11:54:26.959Z,16
2022-08-26T11:57:08.037Z,17
2022-08-26T11:59:42.813Z,16
2022-08-26T12:02:15.607Z,24
2022-08-26T12:04:49.465Z,16
2022-08-26T12:07:23.912Z,17
2022-08-26T12:09:57.021Z,19
2022-08-26T12:12:34.925Z,16
2022-08-26T12:15:07.377Z,21
2022-08-26T12:17:39.587Z,19
2022-08-26T12:20:12.562Z,15
2022-08-26T12:22:47.932Z,16
2022-08-26T12:25:20.708Z,20
2022-08-26T12:27:53.967Z,13
2022-08-26T12:30:26.786Z,20
2022-08-26T12:33:15.775Z,16
2022-08-26T12:35:56.448Z,15
2022-08-26T12:38:28.801Z,16
2022-08-26T12:41:01.645Z,16
2022-08-26T12:43:34.271Z,16
2022-08-26T12:46:09.755Z,16
2022-08-26T12:48:43.367Z,16
2022-08-26T12:51:16.543Z,16
2022-08-26T12:53:49.311Z,12
2022-08-26T12:56:22.190Z,24
2022-08-26T12:58:54.897Z,16
2022-08-26T13:01:28.185Z,16
2022-08-26T13:04:01.386Z,16
2022-08-26T13:06:33.873Z,15
2022-08-26T13:09:06.687Z,20
2022-08-26T13:11:39.259Z,20
2022-08-26T13:14:11.961Z,19
2022-08-26T13:16:55.572Z,16
2022-08-26T13:19:28.586Z,20
2022-08-26T13:22:01.242Z,16
2022-08-26T13:24:33.807Z,20
2022-08-26T13:27:06.751Z,20
2022-08-26T13:29:39.787Z,16
2022-08-26T13:32:13.446Z,17
2022-08-26T13:34:49.354Z,20
2022-08-26T13:37:22.747Z,20
2022-08-26T13:40:06.203Z,18
2022-08-26T13:42:43.082Z,16
2022-08-26T13:45:20.655Z,16
2022-08-26T13:47:53.162Z,16
2022-08-26T13:50:25.483Z,16
2022-08-26T13:52:58.845Z,16
2022-08-26T13:55:31.473Z,16
2022-08-26T13:58:04.619Z,20
2022-08-26T14:00:37.164Z,16
2022-08-26T14:03:13.333Z,18
2022-08-26T14:05:45.318Z,20
2022-08-26T14:08:17.969Z,16
2022-08-26T14:10:51.287Z,19
2022-08-26T14:13:23.669Z,17
2022-08-26T14:15:56.398Z,16
2022-08-26T14:18:28.967Z,16
2022-08-26T14:21:02.367Z,16
2022-08-26T14:23:35.130Z,16
2022-08-26T14:26:08.472Z,16
2022-08-26T14:29:00.247Z,16
2022-08-26T14:31:33.240Z,16
2022-08-26T14:34:06.602Z,16
2022-08-26T14:36:39.371Z,16
2022-08-26T14:39:12.600Z,13
2022-08-26T14:41:45.091Z,16
2022-08-26T14:44:25.918Z,16
2022-08-26T14:46:59.077Z,16
2022-08-26T14:49:31.900Z,16
2022-08-26T14:52:04.625Z,16
2022-08-26T14:54:37.775Z,16
2022-08-26T14:57:11.400Z,16
2022-08-26T14:59:44.595Z,16
2022-08-26T15:02:27.712Z,16
2022-08-26T15:05:06.238Z,20
2022-08-26T15:07:39.323Z,18
2022-08-26T15:10:12.247Z,16
2022-08-26T15:12:44.759Z,16
2022-08-26T15:15:15.933Z,19
2022-08-26T15:17:48.467Z,13
2022-08-26T15:20:21.424Z,16
2022-08-26T15:22:54.805Z,18
2022-08-26T15:25:36.582Z,16
2022-08-26T15:28:09.813Z,20
2022-08-26T15:30:42.929Z,16
2022-08-26T15:33:15.742Z,16
2022-08-26T15:35:48.843Z,20
2022-08-26T15:38:21.501Z,16
2022-08-26T15:40:54.460Z,20
2022-08-26T15:43:31.844Z,20
2022-08-26T15:46:05.115Z,16
2022-08-26T15:48:38.327Z,16
2022-08-26T15:51:11.325Z,16
2022-08-26T15:53:43.574Z,16
2022-08-26T15:56:16.149Z,12
2022-08-26T15:58:53.903Z,16
2022-08-26T16:01:29.881Z,14
2022-08-26T16:04:02.880Z,16
2022-08-26T16:06:35.845Z,12
2022-08-26T16:09:08.922Z,14
2022-08-26T16:11:41.582Z,12
2022-08-26T16:14:14.792Z,13
2022-08-26T16:16:47.531Z,16
2022-08-26T16:19:20.166Z,16
2022-08-26T16:21:53.117Z,15
2022-08-26T16:24:30.316Z,12
2022-08-26T16:27:01.849Z,16
2022-08-26T16:29:35.128Z,16
2022-08-26T16:32:07.804Z,14
2022-08-26T16:34:47.039Z,12
2022-08-26T16:37:28.062Z,16
2022-08-26T16:40:01.209Z,16
2022-08-26T16:42:34.045Z,14
2022-08-26T16:45:07.181Z,14
2022-08-26T16:47:39.973Z,13
2022-08-26T16:50:12.959Z,15
2022-08-26T16:52:45.447Z,16
2022-08-26T16:55:27.256Z,19
2022-08-26T16:57:58.595Z,13
2022-08-26T17:00:31.565Z,12
2022-08-26T17:03:04.233Z,16
2022-08-26T17:05:37.057Z,15
2022-08-26T17:08:09.810Z,15
2022-08-26T17:10:58.748Z,17
2022-08-26T17:13:35.642Z,15
2022-08-26T17:16:07.305Z,16
2022-08-26T17:18:40.234Z,20
2022-08-26T17:21:13.414Z,16
2022-08-26T17:23:46.045Z,16
2022-08-26T17:26:19.044Z,16
2022-08-26T17:28:52.280Z,17
2022-08-26T17:31:25.372Z,16
2022-08-26T17:33:58.451Z,16
2022-08-26T17:36:31.318Z,16
2022-08-26T17:39:03.855Z,12
2022-08-26T17:41:36.492Z,14
2022-08-26T17:44:09.379Z,16
2022-08-26T17:46:40.042Z,16
2022-08-26T17:49:12.729Z,16
2022-08-26T17:51:45.214Z,24
2022-08-26T17:54:17.579Z,26
2022-08-26T17:56:50.172Z,20
2022-08-26T17:59:23.507Z,24
2022-08-26T18:02:02.688Z,24
2022-08-26T18:04:35.309Z,21
2022-08-26T18:07:08.194Z,24
2022-08-26T18:09:40.882Z,24
2022-08-26T18:12:13.813Z,32
2022-08-26T18:14:46.330Z,24
2022-08-26T18:17:19.361Z,24
2022-08-26T18:19:51.925Z,20
2022-08-26T18:22:25.247Z,24
2022-08-26T18:24:58.225Z,22
2022-08-26T18:27:31.433Z,20
2022-08-26T18:30:04.255Z,23
2022-08-26T18:32:36.683Z,20
2022-08-26T18:35:09.265Z,23
2022-08-26T18:37:41.753Z,20
2022-08-26T18:40:14.784Z,20
2022-08-26T18:42:49.322Z,20
2022-08-26T18:45:25.645Z,21
2022-08-26T18:47:58.026Z,23
2022-08-26T18:50:30.759Z,28
2022-08-26T18:53:03.712Z,28
2022-08-26T18:55:36.439Z,21
2022-08-26T18:58:09.334Z,24
2022-08-26T19:00:43.569Z,28
2022-08-26T19:03:18.596Z,20
2022-08-26T19:05:50.909Z,24
2022-08-26T19:08:23.839Z,24
2022-08-26T19:10:56.682Z,20
2022-08-26T19:13:29.810Z,21
2022-08-26T19:16:02.817Z,24
2022-08-26T19:18:36.046Z,20
2022-08-26T19:21:09.714Z,24
2022-08-26T19:23:42.351Z,22
2022-08-26T19:26:15.071Z,28
2022-08-26T19:28:47.482Z,27
2022-08-26T19:31:19.804Z,27
2022-08-26T19:33:52.746Z,24
2022-08-26T19:36:25.354Z,20
2022-08-26T19:38:57.807Z,20
2022-08-26T19:41:37.366Z,20
2022-08-26T19:44:08.984Z,21
2022-08-26T19:46:41.440Z,20
2022-08-26T19:49:14.186Z,24
2022-08-26T19:51:47.940Z,20
2022-08-26T19:54:20.566Z,24
2022-08-26T19:56:53.261Z,29
2022-08-26T19:59:26.416Z,31
2022-08-26T20:02:00.973Z,26
2022-08-26T20:04:41.451Z,28
2022-08-26T20:07:18.007Z,28
2022-08-26T20:09:50.399Z,24
2022-08-26T20:12:23.012Z,28
2022-08-26T20:14:56.388Z,25
2022-08-26T20:17:28.862Z,32
2022-08-26T20:20:01.481Z,28
2022-08-26T20:22:34.216Z,27
2022-08-26T20:25:06.810Z,21
2022-08-26T20:27:39.499Z,27
2022-08-26T20:30:12.208Z,25
2022-08-26T20:32:45.546Z,24
2022-08-26T20:35:18.286Z,24
2022-08-26T20:37:51.019Z,24
2022-08-26T20:40:23.883Z,24
2022-08-26T20:42:57.294Z,24
2022-08-26T20:45:30.828Z,20
2022-08-26T20:48:03.744Z,20
2022-08-26T20:50:36.595Z,20
2022-08-26T20:53:09.301Z,20
2022-08-26T20:55:41.846Z,20
2022-08-26T20:58:14.779Z,20
2022-08-26T21:00:47.357Z,18
2022-08-26T21:03:20.424Z,24
2022-08-26T21:05:55.109Z,27
2022-08-26T21:08:28.116Z,24
2022-08-26T21:11:00.715Z,20
2022-08-26T21:14:01.467Z,20
2022-08-26T21:16:47.874Z,23
2022-08-26T21:19:20.357Z,24
2022-08-26T21:21:53.105Z,24
2022-08-26T21:24:25.875Z,20
2022-08-26T21:26:58.419Z,21
2022-08-26T21:29:31.125Z,23
2022-08-26T21:32:04.445Z,20
2022-08-26T21:34:36.978Z,21
2022-08-26T21:37:13.252Z,24
2022-08-26T21:39:48.159Z,23
2022-08-26T21:42:20.904Z,20
2022-08-26T21:44:53.813Z,20
2022-08-26T21:47:26.355Z,20
2022-08-26T21:49:58.925Z,20
2022-08-26T21:52:32.146Z,20
2022-08-26T21:55:05.005Z,20
2022-08-26T21:57:42.583Z,20
2022-08-26T22:00:15.753Z,16
2022-08-26T22:02:48.354Z,20
2022-08-26T22:05:22.439Z,20
2022-08-26T22:07:55.195Z,20
2022-08-26T22:10:27.844Z,20
2022-08-26T22:13:00.566Z,20
2022-08-26T22:15:33.087Z,20
2022-08-26T22:18:06.690Z,17
2022-08-26T22:20:39.919Z,20
2022-08-26T22:23:13.189Z,20
2022-08-26T22:25:46.501Z,20
2022-08-26T22:28:19.620Z,20
2022-08-26T22:30:52.375Z,24
2022-08-26T22:33:24.870Z,28
2022-08-26T22:35:58.285Z,24
2022-08-26T22:38:31.599Z,24
2022-08-26T22:41:08.266Z,21
2022-08-26T22:43:40.153Z,20
2022-08-26T22:46:13.297Z,20
2022-08-26T22:48:46.870Z,20
2022-08-26T22:51:25.462Z,20
2022-08-26T22:53:58.083Z,16
2022-08-26T22:56:31.459Z,19
2022-08-26T22:59:04.672Z,17
2022-08-26T23:01:37.495Z,20
2022-08-26T23:04:10.339Z,20
2022-08-26T23:06:47.400Z,16
2022-08-26T23:09:20.120Z,17
2022-08-26T23:11:54.436Z,20
2022-08-26T23:14:26.937Z,20
2022-08-26T23:17:00.359Z,20
2022-08-26T23:19:33.401Z,20
2022-08-26T23:22:06.689Z,17
2022-08-26T23:24:39.268Z,16
2022-08-26T23:27:12.575Z,20
2022-08-26T23:29:45.762Z,19
2022-08-26T23:32:18.501Z,17
2022-08-26T23:34:51.061Z,16
2022-08-26T23:37:24.640Z,20
2022-08-26T23:40:00.293Z,19
2022-08-26T23:42:35.689Z,20
2022-08-26T23:45:08.451Z,20
2022-08-26T23:47:40.867Z,28
2022-08-26T23:50:13.853Z,25
2022-08-26T23:52:47.135Z,23
2022-08-26T23:55:19.681Z,20
2022-08-26T23:57:52.506Z,20
